sensor_id;sensor_type;location;lat;lon;timestamp;pressure;altitude;pressure_sealevel;temperature;humidity
70242;BME280;57631;52.218;0.108;2022-12-01T00:00:01;102879.74;;;13.52;55.17
70242;BME280;57631;52.218;0.108;2022-12-01T00:02:28;102875.32;;;13.85;53.41
70242;BME280;57631;52.218;0.108;2022-12-01T00:04:51;102877.27;;;14.13;52.67
70242;BME280;57631;52.218;0.108;2022-12-01T00:07:17;102873.88;;;14.36;52.67
70242;BME280;57631;52.218;0.108;2022-12-01T00:09:42;102875.61;;;14.06;52.86
70242;BME280;57631;52.218;0.108;2022-12-01T00:12:08;102869.54;;;13.89;53.25
70242;BME280;57631;52.218;0.108;2022-12-01T00:14:34;102865.42;;;13.85;53.04
70242;BME280;57631;52.218;0.108;2022-12-01T00:16:59;102860.94;;;13.88;52.52
70242;BME280;57631;52.218;0.108;2022-12-01T00:19:25;102860.73;;;13.77;52.81
70242;BME280;57631;52.218;0.108;2022-12-01T00:21:51;102862.24;;;13.56;52.82
70242;BME280;57631;52.218;0.108;2022-12-01T00:24:16;102857.86;;;13.60;52.19
70242;BME280;57631;52.218;0.108;2022-12-01T00:26:42;102859.69;;;13.35;52.69
70242;BME280;57631;52.218;0.108;2022-12-01T00:29:07;102860.51;;;13.45;52.71
70242;BME280;57631;52.218;0.108;2022-12-01T00:31:33;102863.53;;;13.16;52.64
70242;BME280;57631;52.218;0.108;2022-12-01T00:33:58;102865.71;;;12.84;53.31
70242;BME280;57631;52.218;0.108;2022-12-01T00:36:24;102864.24;;;13.18;53.04
70242;BME280;57631;52.218;0.108;2022-12-01T00:38:51;102862.64;;;13.17;52.91
70242;BME280;57631;52.218;0.108;2022-12-01T00:41:14;102865.13;;;12.81;52.90
70242;BME280;57631;52.218;0.108;2022-12-01T00:43:40;102863.47;;;13.04;53.45
70242;BME280;57631;52.218;0.108;2022-12-01T00:46:07;102862.79;;;12.55;54.31
70242;BME280;57631;52.218;0.108;2022-12-01T00:48:31;102863.60;;;12.89;54.00
70242;BME280;57631;52.218;0.108;2022-12-01T00:50:56;102866.17;;;12.52;54.16
70242;BME280;57631;52.218;0.108;2022-12-01T00:53:22;102869.01;;;12.61;53.63
70242;BME280;57631;52.218;0.108;2022-12-01T00:55:47;102870.79;;;12.71;54.49
70242;BME280;57631;52.218;0.108;2022-12-01T00:58:12;102870.56;;;12.49;54.86
70242;BME280;57631;52.218;0.108;2022-12-01T01:00:38;102871.25;;;12.47;55.49
70242;BME280;57631;52.218;0.108;2022-12-01T01:03:04;102871.54;;;12.42;56.38
70242;BME280;57631;52.218;0.108;2022-12-01T01:05:29;102873.10;;;12.32;56.91
70242;BME280;57631;52.218;0.108;2022-12-01T01:07:56;102873.66;;;11.86;57.03
70242;BME280;57631;52.218;0.108;2022-12-01T01:10:21;102871.70;;;12.10;58.04
70242;BME280;57631;52.218;0.108;2022-12-01T01:12:47;102871.00;;;11.94;59.11
70242;BME280;57631;52.218;0.108;2022-12-01T01:15:12;102870.51;;;11.97;58.65
70242;BME280;57631;52.218;0.108;2022-12-01T01:17:38;102865.81;;;11.52;59.20
70242;BME280;57631;52.218;0.108;2022-12-01T01:20:03;102868.15;;;11.85;58.15
70242;BME280;57631;52.218;0.108;2022-12-01T01:22:28;102867.02;;;11.97;58.17
70242;BME280;57631;52.218;0.108;2022-12-01T01:24:55;102869.37;;;11.70;58.52
70242;BME280;57631;52.218;0.108;2022-12-01T01:27:20;102872.82;;;12.44;58.89
70242;BME280;57631;52.218;0.108;2022-12-01T01:29:46;102870.72;;;12.33;57.75
70242;BME280;57631;52.218;0.108;2022-12-01T01:32:12;102869.25;;;12.47;57.09
70242;BME280;57631;52.218;0.108;2022-12-01T01:34:37;102872.61;;;12.47;57.21
70242;BME280;57631;52.218;0.108;2022-12-01T01:37:03;102872.35;;;12.46;56.79
70242;BME280;57631;52.218;0.108;2022-12-01T01:39:29;102876.24;;;12.01;58.48
70242;BME280;57631;52.218;0.108;2022-12-01T01:41:54;102880.80;;;12.12;57.74
70242;BME280;57631;52.218;0.108;2022-12-01T01:46:45;102889.44;;;12.39;56.88
70242;BME280;57631;52.218;0.108;2022-12-01T01:49:11;102890.02;;;12.29;55.92
70242;BME280;57631;52.218;0.108;2022-12-01T01:51:39;102895.55;;;12.18;55.69
70242;BME280;57631;52.218;0.108;2022-12-01T01:54:05;102899.37;;;12.19;55.66
70242;BME280;57631;52.218;0.108;2022-12-01T01:56:27;102902.23;;;12.16;55.55
70242;BME280;57631;52.218;0.108;2022-12-01T01:58:53;102904.47;;;12.00;55.60
70242;BME280;57631;52.218;0.108;2022-12-01T02:01:18;102904.04;;;11.54;56.97
70242;BME280;57631;52.218;0.108;2022-12-01T02:03:44;102902.75;;;11.99;56.68
70242;BME280;57631;52.218;0.108;2022-12-01T02:06:10;102900.39;;;11.98;56.29
70242;BME280;57631;52.218;0.108;2022-12-01T02:08:35;102898.19;;;11.93;56.17
70242;BME280;57631;52.218;0.108;2022-12-01T02:11:15;102900.35;;;11.81;56.37
70242;BME280;57631;52.218;0.108;2022-12-01T02:13:32;102901.32;;;11.89;55.82
70242;BME280;57631;52.218;0.108;2022-12-01T02:15:57;102901.50;;;11.23;55.90
70242;BME280;57631;52.218;0.108;2022-12-01T02:18:22;102902.07;;;11.77;55.64
70242;BME280;57631;52.218;0.108;2022-12-01T02:25:40;102905.61;;;11.29;56.82
70242;BME280;57631;52.218;0.108;2022-12-01T02:30:32;102907.63;;;11.17;56.95
70242;BME280;57631;52.218;0.108;2022-12-01T02:33:00;102901.00;;;11.35;56.16
70242;BME280;57631;52.218;0.108;2022-12-01T02:35:22;102895.76;;;11.07;57.10
70242;BME280;57631;52.218;0.108;2022-12-01T02:37:46;102889.18;;;11.45;56.43
70242;BME280;57631;52.218;0.108;2022-12-01T02:40:13;102883.56;;;11.24;56.35
70242;BME280;57631;52.218;0.108;2022-12-01T02:42:38;102878.91;;;11.45;55.52
70242;BME280;57631;52.218;0.108;2022-12-01T02:44:58;102877.08;;;11.23;55.74
70242;BME280;57631;52.218;0.108;2022-12-01T02:47:22;102876.00;;;11.34;55.84
70242;BME280;57631;52.218;0.108;2022-12-01T02:49:49;102868.73;;;11.47;54.71
70242;BME280;57631;52.218;0.108;2022-12-01T02:52:14;102871.25;;;11.16;57.04
70242;BME280;57631;52.218;0.108;2022-12-01T02:54:39;102867.22;;;11.16;56.12
70242;BME280;57631;52.218;0.108;2022-12-01T02:57:04;102862.15;;;10.74;56.64
70242;BME280;57631;52.218;0.108;2022-12-01T02:59:29;102857.59;;;11.26;56.81
70242;BME280;57631;52.218;0.108;2022-12-01T03:02:03;102854.93;;;10.70;57.48
70242;BME280;57631;52.218;0.108;2022-12-01T03:04:34;102855.47;;;10.87;56.85
70242;BME280;57631;52.218;0.108;2022-12-01T03:06:54;102849.47;;;10.24;59.25
70242;BME280;57631;52.218;0.108;2022-12-01T03:09:18;102850.94;;;9.50;61.08
70242;BME280;57631;52.218;0.108;2022-12-01T03:11:43;102849.24;;;9.11;63.17
70242;BME280;57631;52.218;0.108;2022-12-01T03:14:14;102851.95;;;8.99;63.51
70242;BME280;57631;52.218;0.108;2022-12-01T03:16:32;102855.95;;;9.60;62.56
70242;BME280;57631;52.218;0.108;2022-12-01T03:18:55;102863.22;;;9.03;62.28
70242;BME280;57631;52.218;0.108;2022-12-01T03:21:22;102866.05;;;9.39;62.42
70242;BME280;57631;52.218;0.108;2022-12-01T03:23:46;102865.42;;;9.29;61.54
70242;BME280;57631;52.218;0.108;2022-12-01T03:26:13;102867.39;;;9.14;63.32
70242;BME280;57631;52.218;0.108;2022-12-01T03:28:38;102868.21;;;8.99;63.88
70242;BME280;57631;52.218;0.108;2022-12-01T03:31:05;102872.84;;;8.59;64.50
70242;BME280;57631;52.218;0.108;2022-12-01T03:33:28;102875.88;;;8.87;64.11
70242;BME280;57631;52.218;0.108;2022-12-01T03:35:54;102877.34;;;8.18;66.36
70242;BME280;57631;52.218;0.108;2022-12-01T03:38:19;102879.09;;;8.15;65.80
70242;BME280;57631;52.218;0.108;2022-12-01T03:40:43;102880.47;;;8.62;65.33
70242;BME280;57631;52.218;0.108;2022-12-01T03:43:10;102883.86;;;8.76;63.42
70242;BME280;57631;52.218;0.108;2022-12-01T03:45:38;102881.47;;;9.29;61.94
70242;BME280;57631;52.218;0.108;2022-12-01T03:47:58;102884.53;;;9.32;59.76
70242;BME280;57631;52.218;0.108;2022-12-01T03:50:30;102886.48;;;9.38;59.21
70242;BME280;57631;52.218;0.108;2022-12-01T03:52:55;102891.29;;;9.29;60.59
70242;BME280;57631;52.218;0.108;2022-12-01T03:55:18;102895.28;;;9.81;60.57
70242;BME280;57631;52.218;0.108;2022-12-01T03:57:43;102899.37;;;10.05;59.35
70242;BME280;57631;52.218;0.108;2022-12-01T04:00:07;102902.31;;;9.81;58.80
70242;BME280;57631;52.218;0.108;2022-12-01T04:02:31;102903.69;;;9.61;58.86
70242;BME280;57631;52.218;0.108;2022-12-01T04:04:56;102907.19;;;9.62;56.16
70242;BME280;57631;52.218;0.108;2022-12-01T04:07:22;102906.84;;;9.38;58.55
70242;BME280;57631;52.218;0.108;2022-12-01T04:09:46;102910.73;;;9.42;59.47
70242;BME280;57631;52.218;0.108;2022-12-01T04:12:13;102914.87;;;8.92;60.19
70242;BME280;57631;52.218;0.108;2022-12-01T04:14:37;102916.80;;;8.99;61.45
70242;BME280;57631;52.218;0.108;2022-12-01T04:17:03;102917.72;;;8.32;61.74
70242;BME280;57631;52.218;0.108;2022-12-01T04:19:28;102922.67;;;7.89;63.59
70242;BME280;57631;52.218;0.108;2022-12-01T04:21:54;102924.96;;;7.96;63.87
70242;BME280;57631;52.218;0.108;2022-12-01T04:24:20;102925.15;;;7.90;64.34
70242;BME280;57631;52.218;0.108;2022-12-01T04:26:45;102926.15;;;8.04;66.50
70242;BME280;57631;52.218;0.108;2022-12-01T04:29:12;102925.91;;;7.68;65.48
70242;BME280;57631;52.218;0.108;2022-12-01T04:31:37;102922.27;;;7.93;64.76
70242;BME280;57631;52.218;0.108;2022-12-01T04:34:03;102919.15;;;7.99;63.51
70242;BME280;57631;52.218;0.108;2022-12-01T04:36:31;102920.80;;;7.85;66.60
70242;BME280;57631;52.218;0.108;2022-12-01T04:38:54;102920.27;;;7.51;64.48
70242;BME280;57631;52.218;0.108;2022-12-01T04:41:19;102918.03;;;7.85;64.67
70242;BME280;57631;52.218;0.108;2022-12-01T04:43:45;102918.28;;;8.17;62.62
70242;BME280;57631;52.218;0.108;2022-12-01T04:46:10;102922.60;;;8.26;62.36
70242;BME280;57631;52.218;0.108;2022-12-01T04:48:36;102925.72;;;8.67;61.90
70242;BME280;57631;52.218;0.108;2022-12-01T04:51:01;102926.79;;;8.96;60.15
70242;BME280;57631;52.218;0.108;2022-12-01T04:53:25;102926.14;;;9.35;59.80
70242;BME280;57631;52.218;0.108;2022-12-01T04:55:51;102928.18;;;9.08;58.75
70242;BME280;57631;52.218;0.108;2022-12-01T04:58:16;102928.15;;;9.25;58.13
70242;BME280;57631;52.218;0.108;2022-12-01T05:00:41;102925.05;;;9.39;57.67
70242;BME280;57631;52.218;0.108;2022-12-01T05:03:07;102920.86;;;9.62;56.90
70242;BME280;57631;52.218;0.108;2022-12-01T05:05:32;102923.13;;;9.27;58.86
70242;BME280;57631;52.218;0.108;2022-12-01T05:07:58;102924.69;;;8.90;59.32
70242;BME280;57631;52.218;0.108;2022-12-01T05:10:23;102921.68;;;9.44;57.62
70242;BME280;57631;52.218;0.108;2022-12-01T05:12:49;102917.48;;;9.32;58.19
70242;BME280;57631;52.218;0.108;2022-12-01T05:15:14;102919.14;;;8.84;58.84
70242;BME280;57631;52.218;0.108;2022-12-01T05:17:39;102920.08;;;9.46;57.83
70242;BME280;57631;52.218;0.108;2022-12-01T05:20:06;102920.89;;;9.51;56.56
70242;BME280;57631;52.218;0.108;2022-12-01T05:22:29;102918.30;;;10.07;55.45
70242;BME280;57631;52.218;0.108;2022-12-01T05:24:55;102920.73;;;9.27;56.56
70242;BME280;57631;52.218;0.108;2022-12-01T05:27:20;102925.74;;;8.46;60.67
70242;BME280;57631;52.218;0.108;2022-12-01T05:29:45;102928.31;;;9.09;59.74
70242;BME280;57631;52.218;0.108;2022-12-01T05:32:11;102927.32;;;9.23;59.47
70242;BME280;57631;52.218;0.108;2022-12-01T05:34:36;102929.43;;;9.13;59.04
70242;BME280;57631;52.218;0.108;2022-12-01T05:37:01;102928.46;;;9.04;58.24
70242;BME280;57631;52.218;0.108;2022-12-01T05:39:27;102926.17;;;9.77;57.08
70242;BME280;57631;52.218;0.108;2022-12-01T05:41:53;102929.54;;;9.19;56.74
70242;BME280;57631;52.218;0.108;2022-12-01T05:44:19;102930.85;;;9.58;56.83
70242;BME280;57631;52.218;0.108;2022-12-01T05:46:44;102929.92;;;9.46;57.49
70242;BME280;57631;52.218;0.108;2022-12-01T05:49:10;102933.70;;;9.85;56.49
70242;BME280;57631;52.218;0.108;2022-12-01T05:51:35;102935.03;;;9.58;56.41
70242;BME280;57631;52.218;0.108;2022-12-01T05:54:01;102936.82;;;9.64;55.75
70242;BME280;57631;52.218;0.108;2022-12-01T05:56:26;102939.11;;;9.85;55.52
70242;BME280;57631;52.218;0.108;2022-12-01T05:58:52;102944.89;;;8.34;60.71
70242;BME280;57631;52.218;0.108;2022-12-01T06:01:17;102946.57;;;8.29;62.29
70242;BME280;57631;52.218;0.108;2022-12-01T06:03:42;102948.23;;;8.24;63.93
70242;BME280;57631;52.218;0.108;2022-12-01T06:06:08;102946.38;;;7.44;65.66
70242;BME280;57631;52.218;0.108;2022-12-01T06:08:33;102946.09;;;8.20;62.44
70242;BME280;57631;52.218;0.108;2022-12-01T06:10:58;102947.74;;;7.90;63.41
70242;BME280;57631;52.218;0.108;2022-12-01T06:13:24;102943.49;;;8.59;61.31
70242;BME280;57631;52.218;0.108;2022-12-01T06:15:56;102944.96;;;9.06;59.76
70242;BME280;57631;52.218;0.108;2022-12-01T06:18:14;102945.07;;;8.81;59.33
70242;BME280;57631;52.218;0.108;2022-12-01T06:20:40;102945.79;;;8.87;60.45
70242;BME280;57631;52.218;0.108;2022-12-01T06:23:05;102948.42;;;8.85;59.43
70242;BME280;57631;52.218;0.108;2022-12-01T06:25:31;102945.74;;;8.35;59.37
70242;BME280;57631;52.218;0.108;2022-12-01T06:27:58;102948.14;;;8.19;61.39
70242;BME280;57631;52.218;0.108;2022-12-01T06:30:22;102951.45;;;8.75;61.15
70242;BME280;57631;52.218;0.108;2022-12-01T06:32:48;102948.94;;;8.88;59.96
70242;BME280;57631;52.218;0.108;2022-12-01T06:35:13;102948.62;;;9.16;59.09
70242;BME280;57631;52.218;0.108;2022-12-01T06:37:38;102945.56;;;9.12;58.77
70242;BME280;57631;52.218;0.108;2022-12-01T06:40:05;102935.99;;;9.27;57.88
70242;BME280;57631;52.218;0.108;2022-12-01T06:42:30;102931.14;;;9.39;57.86
70242;BME280;57631;52.218;0.108;2022-12-01T06:44:55;102934.23;;;9.36;57.66
70242;BME280;57631;52.218;0.108;2022-12-01T06:47:21;102932.40;;;9.58;57.69
70242;BME280;57631;52.218;0.108;2022-12-01T06:49:46;102933.31;;;9.70;57.31
70242;BME280;57631;52.218;0.108;2022-12-01T06:52:12;102940.28;;;9.92;56.56
70242;BME280;57631;52.218;0.108;2022-12-01T06:54:37;102942.21;;;9.73;57.46
70242;BME280;57631;52.218;0.108;2022-12-01T06:57:02;102942.43;;;9.49;58.68
70242;BME280;57631;52.218;0.108;2022-12-01T06:59:28;102946.62;;;9.26;57.80
70242;BME280;57631;52.218;0.108;2022-12-01T07:01:53;102945.94;;;8.69;58.95
70242;BME280;57631;52.218;0.108;2022-12-01T07:04:19;102945.38;;;9.32;57.55
70242;BME280;57631;52.218;0.108;2022-12-01T07:06:44;102947.38;;;9.86;57.10
70242;BME280;57631;52.218;0.108;2022-12-01T07:09:09;102945.33;;;9.51;57.10
70242;BME280;57631;52.218;0.108;2022-12-01T07:11:34;102948.97;;;10.06;56.75
70242;BME280;57631;52.218;0.108;2022-12-01T07:13:59;102950.54;;;9.86;57.06
70242;BME280;57631;52.218;0.108;2022-12-01T07:16:24;102950.58;;;10.13;56.85
70242;BME280;57631;52.218;0.108;2022-12-01T07:18:50;102951.34;;;10.35;56.24
70242;BME280;57631;52.218;0.108;2022-12-01T07:21:16;102950.16;;;10.20;56.02
70242;BME280;57631;52.218;0.108;2022-12-01T07:23:41;102952.30;;;10.02;57.24
70242;BME280;57631;52.218;0.108;2022-12-01T07:26:09;102958.85;;;9.66;57.71
70242;BME280;57631;52.218;0.108;2022-12-01T07:28:32;102960.47;;;9.87;58.06
70242;BME280;57631;52.218;0.108;2022-12-01T07:31:02;102960.37;;;10.34;55.69
70242;BME280;57631;52.218;0.108;2022-12-01T07:33:23;102960.24;;;10.44;55.88
70242;BME280;57631;52.218;0.108;2022-12-01T07:35:48;102964.05;;;10.55;57.05
70242;BME280;57631;52.218;0.108;2022-12-01T07:38:13;102964.35;;;10.11;57.50
70242;BME280;57631;52.218;0.108;2022-12-01T07:40:39;102964.91;;;10.42;56.64
70242;BME280;57631;52.218;0.108;2022-12-01T07:43:04;102963.28;;;9.96;56.35
70242;BME280;57631;52.218;0.108;2022-12-01T07:45:30;102960.95;;;10.21;55.80
70242;BME280;57631;52.218;0.108;2022-12-01T07:47:55;102965.36;;;10.31;57.04
70242;BME280;57631;52.218;0.108;2022-12-01T07:50:21;102966.79;;;10.40;56.73
70242;BME280;57631;52.218;0.108;2022-12-01T07:52:48;102973.47;;;10.52;56.61
70242;BME280;57631;52.218;0.108;2022-12-01T07:55:11;102975.90;;;10.24;56.69
70242;BME280;57631;52.218;0.108;2022-12-01T07:57:37;102979.32;;;10.15;56.35
70242;BME280;57631;52.218;0.108;2022-12-01T08:00:03;102981.83;;;10.60;56.70
70242;BME280;57631;52.218;0.108;2022-12-01T08:02:27;102988.58;;;10.76;56.31
70242;BME280;57631;52.218;0.108;2022-12-01T08:04:52;102988.02;;;10.51;55.73
70242;BME280;57631;52.218;0.108;2022-12-01T08:07:18;102991.25;;;10.88;55.69
70242;BME280;57631;52.218;0.108;2022-12-01T08:09:43;102994.95;;;10.73;56.66
70242;BME280;57631;52.218;0.108;2022-12-01T08:12:08;102997.18;;;10.65;57.01
70242;BME280;57631;52.218;0.108;2022-12-01T08:14:33;102998.57;;;10.72;56.71
70242;BME280;57631;52.218;0.108;2022-12-01T08:16:59;103000.07;;;10.81;55.89
70242;BME280;57631;52.218;0.108;2022-12-01T08:19:24;103000.40;;;10.76;55.56
70242;BME280;57631;52.218;0.108;2022-12-01T08:21:51;102999.34;;;10.68;55.31
70242;BME280;57631;52.218;0.108;2022-12-01T08:24:16;103000.30;;;11.31;55.02
70242;BME280;57631;52.218;0.108;2022-12-01T08:26:41;103001.56;;;11.26;55.60
70242;BME280;57631;52.218;0.108;2022-12-01T08:29:07;103001.25;;;10.98;55.27
70242;BME280;57631;52.218;0.108;2022-12-01T08:31:33;103002.28;;;10.91;54.99
70242;BME280;57631;52.218;0.108;2022-12-01T08:33:58;103002.91;;;11.01;55.20
70242;BME280;57631;52.218;0.108;2022-12-01T08:36:24;103004.02;;;10.90;55.70
70242;BME280;57631;52.218;0.108;2022-12-01T08:38:51;102997.98;;;10.62;55.93
70242;BME280;57631;52.218;0.108;2022-12-01T08:41:14;102997.47;;;11.32;55.08
70242;BME280;57631;52.218;0.108;2022-12-01T08:43:40;102998.03;;;11.15;55.82
70242;BME280;57631;52.218;0.108;2022-12-01T08:46:06;102999.47;;;11.34;55.84
70242;BME280;57631;52.218;0.108;2022-12-01T08:48:31;102996.08;;;11.23;56.97
70242;BME280;57631;52.218;0.108;2022-12-01T08:51:02;102994.80;;;11.36;55.11
70242;BME280;57631;52.218;0.108;2022-12-01T08:53:21;102998.87;;;10.86;57.82
70242;BME280;57631;52.218;0.108;2022-12-01T08:55:47;103002.78;;;10.92;56.83
70242;BME280;57631;52.218;0.108;2022-12-01T08:58:12;103004.42;;;11.24;55.97
70242;BME280;57631;52.218;0.108;2022-12-01T09:00:38;103006.69;;;10.99;56.97
70242;BME280;57631;52.218;0.108;2022-12-01T09:03:04;103010.91;;;10.61;57.56
70242;BME280;57631;52.218;0.108;2022-12-01T09:05:29;103012.50;;;10.87;58.53
70242;BME280;57631;52.218;0.108;2022-12-01T09:07:56;103011.92;;;10.96;58.37
70242;BME280;57631;52.218;0.108;2022-12-01T09:10:21;103012.37;;;10.60;58.41
70242;BME280;57631;52.218;0.108;2022-12-01T09:12:46;103014.63;;;11.34;57.58
70242;BME280;57631;52.218;0.108;2022-12-01T09:15:12;103016.75;;;11.21;57.88
70242;BME280;57631;52.218;0.108;2022-12-01T09:17:37;103017.35;;;10.83;57.14
70242;BME280;57631;52.218;0.108;2022-12-01T09:20:03;103022.55;;;10.37;60.11
70242;BME280;57631;52.218;0.108;2022-12-01T09:22:28;103026.92;;;10.52;60.46
70242;BME280;57631;52.218;0.108;2022-12-01T09:24:54;103026.09;;;9.81;59.89
70242;BME280;57631;52.218;0.108;2022-12-01T09:27:19;103023.60;;;10.54;59.36
70242;BME280;57631;52.218;0.108;2022-12-01T09:29:45;103030.87;;;10.97;58.51
70242;BME280;57631;52.218;0.108;2022-12-01T09:32:11;103031.56;;;10.75;58.23
70242;BME280;57631;52.218;0.108;2022-12-01T09:34:36;103036.61;;;11.04;57.52
70242;BME280;57631;52.218;0.108;2022-12-01T09:37:01;103042.35;;;11.24;58.75
70242;BME280;57631;52.218;0.108;2022-12-01T09:39:27;103046.62;;;11.19;57.40
70242;BME280;57631;52.218;0.108;2022-12-01T09:41:55;103045.48;;;10.86;56.77
70242;BME280;57631;52.218;0.108;2022-12-01T09:44:28;103047.31;;;10.98;57.83
70242;BME280;57631;52.218;0.108;2022-12-01T09:46:47;103045.54;;;11.41;57.00
70242;BME280;57631;52.218;0.108;2022-12-01T09:49:15;103043.62;;;11.54;55.53
70242;BME280;57631;52.218;0.108;2022-12-01T09:51:34;103042.29;;;11.52;56.34
70242;BME280;57631;52.218;0.108;2022-12-01T09:54:00;103047.12;;;11.42;56.76
70242;BME280;57631;52.218;0.108;2022-12-01T09:56:27;103047.95;;;11.89;55.89
70242;BME280;57631;52.218;0.108;2022-12-01T09:58:53;103047.94;;;12.11;54.43
70242;BME280;57631;52.218;0.108;2022-12-01T10:01:18;103048.82;;;12.00;55.45
70242;BME280;57631;52.218;0.108;2022-12-01T10:03:45;103046.66;;;12.07;55.74
70242;BME280;57631;52.218;0.108;2022-12-01T10:06:11;103045.80;;;12.06;54.90
70242;BME280;57631;52.218;0.108;2022-12-01T10:08:36;103046.37;;;11.87;55.78
70242;BME280;57631;52.218;0.108;2022-12-01T10:11:05;103043.70;;;12.05;55.35
70242;BME280;57631;52.218;0.108;2022-12-01T10:13:26;103040.80;;;12.23;55.06
70242;BME280;57631;52.218;0.108;2022-12-01T10:15:55;103034.32;;;11.47;56.19
70242;BME280;57631;52.218;0.108;2022-12-01T10:18:26;103034.40;;;11.52;55.75
70242;BME280;57631;52.218;0.108;2022-12-01T10:20:49;103035.33;;;11.88;55.71
70242;BME280;57631;52.218;0.108;2022-12-01T10:23:21;103034.14;;;11.77;57.21
70242;BME280;57631;52.218;0.108;2022-12-01T10:25:36;103032.52;;;11.27;58.74
70242;BME280;57631;52.218;0.108;2022-12-01T10:28:06;103032.09;;;10.83;58.34
70242;BME280;57631;52.218;0.108;2022-12-01T10:30:22;103025.93;;;11.03;57.77
70242;BME280;57631;52.218;0.108;2022-12-01T10:32:51;103022.76;;;11.05;59.70
70242;BME280;57631;52.218;0.108;2022-12-01T10:35:15;103023.07;;;11.40;58.96
70242;BME280;57631;52.218;0.108;2022-12-01T10:37:38;103021.11;;;11.08;60.40
70242;BME280;57631;52.218;0.108;2022-12-01T10:40:05;103021.63;;;11.26;59.01
70242;BME280;57631;52.218;0.108;2022-12-01T10:42:33;103020.06;;;11.26;58.39
70242;BME280;57631;52.218;0.108;2022-12-01T10:44:55;103019.77;;;11.40;58.50
70242;BME280;57631;52.218;0.108;2022-12-01T10:47:22;103017.77;;;10.45;61.60
70242;BME280;57631;52.218;0.108;2022-12-01T10:49:45;103021.14;;;11.36;58.42
70242;BME280;57631;52.218;0.108;2022-12-01T10:54:38;103007.66;;;11.42;57.18
70242;BME280;57631;52.218;0.108;2022-12-01T10:57:03;103006.73;;;11.71;56.23
70242;BME280;57631;52.218;0.108;2022-12-01T10:59:31;103004.11;;;12.06;56.41
70242;BME280;57631;52.218;0.108;2022-12-01T11:01:53;103000.21;;;11.29;57.82
70242;BME280;57631;52.218;0.108;2022-12-01T11:04:28;102998.10;;;11.71;57.68
70242;BME280;57631;52.218;0.108;2022-12-01T11:06:48;102998.05;;;11.90;56.90
70242;BME280;57631;52.218;0.108;2022-12-01T11:09:15;102989.61;;;11.62;57.48
70242;BME280;57631;52.218;0.108;2022-12-01T11:11:36;102987.30;;;11.37;58.76
70242;BME280;57631;52.218;0.108;2022-12-01T11:14:01;102987.76;;;11.24;60.39
70242;BME280;57631;52.218;0.108;2022-12-01T11:16:34;102992.13;;;10.71;63.02
70242;BME280;57631;52.218;0.108;2022-12-01T11:19:05;102984.08;;;10.87;62.16
70242;BME280;57631;52.218;0.108;2022-12-01T11:21:25;102977.41;;;11.61;58.80
70242;BME280;57631;52.218;0.108;2022-12-01T11:23:45;102974.84;;;12.14;58.16
70242;BME280;57631;52.218;0.108;2022-12-01T11:26:13;102969.11;;;11.08;61.47
70242;BME280;57631;52.218;0.108;2022-12-01T11:28:33;102965.44;;;10.83;61.17
70242;BME280;57631;52.218;0.108;2022-12-01T11:31:02;102966.84;;;11.56;59.44
70242;BME280;57631;52.218;0.108;2022-12-01T11:33:23;102963.35;;;10.85;61.08
70242;BME280;57631;52.218;0.108;2022-12-01T11:35:50;102964.06;;;10.89;61.27
70242;BME280;57631;52.218;0.108;2022-12-01T11:38:20;102964.52;;;9.60;66.67
70242;BME280;57631;52.218;0.108;2022-12-01T11:40:45;102956.75;;;9.42;67.50
70242;BME280;57631;52.218;0.108;2022-12-01T11:43:06;102956.72;;;9.91;65.15
70242;BME280;57631;52.218;0.108;2022-12-01T11:45:32;102955.70;;;10.35;63.75
70242;BME280;57631;52.218;0.108;2022-12-01T11:48:00;102952.01;;;10.05;63.75
70242;BME280;57631;52.218;0.108;2022-12-01T11:50:27;102949.42;;;10.22;65.19
70242;BME280;57631;52.218;0.108;2022-12-01T11:52:47;102950.93;;;9.26;68.24
70242;BME280;57631;52.218;0.108;2022-12-01T11:55:19;102943.79;;;9.58;65.04
70242;BME280;57631;52.218;0.108;2022-12-01T11:57:40;102934.56;;;10.51;62.86
70242;BME280;57631;52.218;0.108;2022-12-01T12:00:11;102935.79;;;11.61;59.73
70242;BME280;57631;52.218;0.108;2022-12-01T12:02:34;102926.30;;;12.73;56.05
70242;BME280;57631;52.218;0.108;2022-12-01T12:05:19;102925.04;;;13.33;53.58
70242;BME280;57631;52.218;0.108;2022-12-01T12:07:25;102921.92;;;13.18;54.57
70242;BME280;57631;52.218;0.108;2022-12-01T12:09:55;102921.46;;;13.08;53.36
70242;BME280;57631;52.218;0.108;2022-12-01T12:12:20;102920.99;;;12.83;54.27
70242;BME280;57631;52.218;0.108;2022-12-01T12:14:44;102918.96;;;13.60;51.27
70242;BME280;57631;52.218;0.108;2022-12-01T12:17:13;102916.93;;;13.56;50.86
70242;BME280;57631;52.218;0.108;2022-12-01T12:19:38;102910.19;;;13.79;50.08
70242;BME280;57631;52.218;0.108;2022-12-01T12:22:06;102914.50;;;12.95;50.46
70242;BME280;57631;52.218;0.108;2022-12-01T12:24:28;102909.61;;;14.18;48.98
70242;BME280;57631;52.218;0.108;2022-12-01T12:26:51;102915.53;;;13.76;50.27
70242;BME280;57631;52.218;0.108;2022-12-01T12:29:22;102917.12;;;13.72;51.03
70242;BME280;57631;52.218;0.108;2022-12-01T12:31:41;102914.16;;;12.28;53.84
70242;BME280;57631;52.218;0.108;2022-12-01T12:36:34;102914.96;;;13.36;51.04
70242;BME280;57631;52.218;0.108;2022-12-01T12:39:02;102912.85;;;12.99;53.56
70242;BME280;57631;52.218;0.108;2022-12-01T12:41:25;102919.29;;;13.17;52.39
70242;BME280;57631;52.218;0.108;2022-12-01T12:43:48;102922.69;;;12.33;53.06
70242;BME280;57631;52.218;0.108;2022-12-01T12:46:09;102923.13;;;12.60;53.50
70242;BME280;57631;52.218;0.108;2022-12-01T12:51:04;102930.96;;;12.23;54.36
70242;BME280;57631;52.218;0.108;2022-12-01T12:53:30;102933.57;;;12.93;53.56
70242;BME280;57631;52.218;0.108;2022-12-01T12:55:52;102931.92;;;12.22;54.09
70242;BME280;57631;52.218;0.108;2022-12-01T12:58:19;102930.96;;;12.25;54.78